Time;durP1;ratioP1;P1;durP2;ratioP2;P2;SDS_P1;SDS_P2;PMS_P1;PMS_P2;Temp;Humidity;BMP_temperature;BMP_pressure;BME280_temperature;BME280_humidity;BME280_pressure;Samples;Min_cycle;Max_cycle;Signal;HPM_P1;HPM_P2
2021/08/24 05:00:58;;;;;;;;;;;;;;;;;;;;;
2021/08/24 05:03:25;;;;;;;8.45;3.95;;;15.60;91.30;;;;;;4860512;29;20060;-78
2021/08/24 05:05:51;;;;;;;7.88;3.67;;;15.60;91.30;;;;;;4862959;29;20108;-81
2021/08/24 05:08:17;;;;;;;8.32;4.07;;;15.60;91.20;;;;;;4862290;29;20121;-81
2021/08/24 05:10:42;;;;;;;6.68;3.40;;;15.70;91.20;;;;;;4861386;29;20037;-81
2021/08/24 05:13:08;;;;;;;7.95;3.47;;;15.70;91.40;;;;;;4860491;29;20078;-81
2021/08/24 05:15:34;;;;;;;8.95;3.90;;;15.80;91.10;;;;;;4861552;29;20037;-82
2021/08/24 05:17:59;;;;;;;8.52;3.72;;;15.80;91.10;;;;;;4859887;29;20390;-83
2021/08/24 05:20:25;;;;;;;9.50;3.30;;;15.80;91.10;;;;;;4861436;29;20034;-84
2021/08/24 05:22:51;;;;;;;9.02;3.60;;;15.90;91.10;;;;;;4844896;29;20029;-84
2021/08/24 05:25:20;;;;;;;8.27;3.53;;;16.00;91.10;;;;;;4854059;29;20029;-80
2021/08/24 05:27:46;;;;;;;7.78;3.40;;;16.00;91.00;;;;;;4860691;29;20029;-80
2021/08/24 05:30:20;;;;;;;8.23;3.60;;;16.00;91.00;;;;;;4858380;29;20389;-80
2021/08/24 05:32:47;;;;;;;6.43;3.38;;;16.00;91.00;;;;;;4861255;29;20122;-79
2021/08/24 05:35:13;;;;;;;8.55;3.70;;;16.10;91.10;;;;;;4858551;29;20040;-80
2021/08/24 05:37:39;;;;;;;7.70;3.45;;;16.20;91.00;;;;;;4860645;29;20366;-80
2021/08/24 05:40:06;;;;;;;9.05;3.58;;;16.20;91.10;;;;;;4829319;29;20017;-80
2021/08/24 05:42:32;;;;;;;7.80;3.17;;;16.30;91.10;;;;;;4860323;29;20026;-80
2021/08/24 05:44:58;;;;;;;7.57;3.40;;;16.40;91.10;;;;;;4860731;29;20040;-79
2021/08/24 05:47:24;;;;;;;7.63;3.50;;;16.40;91.10;;;;;;4860804;29;20127;-79
2021/08/24 05:49:50;;;;;;;7.95;3.45;;;16.50;91.00;;;;;;4860482;29;20041;-80
2021/08/24 05:52:16;;;;;;;7.90;3.60;;;16.60;90.90;;;;;;4860476;29;20036;-80
2021/08/24 05:54:42;;;;;;;7.03;3.10;;;16.60;90.80;;;;;;4861257;29;20489;-83
2021/08/24 05:57:11;;;;;;;8.07;3.28;;;16.70;90.80;;;;;;4829048;29;20030;-88
2021/08/24 05:59:37;;;;;;;8.35;3.20;;;16.80;90.80;;;;;;4829996;29;20030;-83
2021/08/24 06:02:08;;;;;;;9.73;3.25;;;16.90;90.80;;;;;;4858004;29;20050;-85
2021/08/24 06:04:37;;;;;;;7.93;3.53;;;17.00;90.70;;;;;;4848192;29;20045;-84
2021/08/24 06:07:06;;;;;;;7.70;2.97;;;17.10;90.60;;;;;;4829518;29;20034;-84
2021/08/24 06:09:32;;;;;;;7.78;3.50;;;17.20;90.60;;;;;;4853828;29;20048;-84
2021/08/24 06:11:58;;;;;;;7.03;3.25;;;17.30;90.50;;;;;;4816244;29;20061;-84
2021/08/24 06:14:28;;;;;;;7.82;3.47;;;17.40;90.20;;;;;;4846108;29;20501;-84
2021/08/24 06:16:59;;;;;;;5.85;2.80;;;17.50;90.30;;;;;;4831136;29;20026;-82
2021/08/24 06:19:26;;;;;;;7.78;3.47;;;17.60;90.30;;;;;;4848167;29;20040;-80
2021/08/24 06:21:53;;;;;;;7.90;3.30;;;17.80;90.40;;;;;;4864165;29;20030;-83
2021/08/24 06:24:18;;;;;;;8.35;3.63;;;17.90;90.20;;;;;;4817699;29;20033;-84
2021/08/24 06:26:50;;;;;;;7.30;3.42;;;18.10;89.80;;;;;;4871149;29;20093;-82
2021/08/24 06:29:16;;;;;;;7.63;3.08;;;18.20;89.50;;;;;;4867926;29;20092;-79
2021/08/24 06:31:46;;;;;;;7.50;3.58;;;18.20;88.90;;;;;;4865706;29;20108;-82
2021/08/24 06:34:13;;;;;;;6.47;3.00;;;18.20;88.90;;;;;;4864504;29;20132;-83
2021/08/24 06:36:40;;;;;;;6.82;3.00;;;18.20;89.10;;;;;;4847285;29;20029;-82
2021/08/24 06:39:06;;;;;;;8.68;3.33;;;18.40;89.30;;;;;;4863845;29;20478;-82
2021/08/24 06:41:32;;;;;;;7.22;3.40;;;18.40;89.00;;;;;;4847315;29;20371;-81
2021/08/24 06:44:03;;;;;;;7.95;3.20;;;18.50;89.00;;;;;;4864217;29;20041;-81
2021/08/24 06:46:28;;;;;;;6.72;3.03;;;18.70;89.90;;;;;;4863659;29;20060;-82
2021/08/24 06:48:54;;;;;;;6.78;3.20;;;18.90;89.00;;;;;;4847627;29;20042;-83
2021/08/24 06:51:25;;;;;;;7.90;3.22;;;19.10;89.20;;;;;;4863482;29;20117;-83
2021/08/24 06:53:50;;;;;;;8.98;3.15;;;19.30;88.80;;;;;;4832277;29;20044;-83
2021/08/24 06:56:22;;;;;;;7.85;2.97;;;19.50;88.40;;;;;;4847323;29;20493;-80
2021/08/24 06:58:48;;;;;;;6.25;2.90;;;19.60;86.90;;;;;;4846849;29;20032;-83
2021/08/24 07:01:22;;;;;;;7.13;3.28;;;19.50;86.10;;;;;;4839967;29;20136;-83
2021/08/24 07:03:51;;;;;;;7.18;2.92;;;19.50;86.70;;;;;;4882209;29;20025;-83
2021/08/24 07:06:16;;;;;;;9.95;3.67;;;19.60;87.20;;;;;;4880746;29;20040;-82
2021/08/24 07:08:42;;;;;;;10.73;3.47;;;19.60;86.80;;;;;;4881600;29;20417;-82
2021/08/24 07:11:09;;;;;;;8.52;3.53;;;19.70;87.00;;;;;;4881768;29;20442;-81
2021/08/24 07:13:39;;;;;;;7.03;2.92;;;20.00;87.40;;;;;;4880779;29;20033;-82
2021/08/24 07:16:13;;;;;;;6.25;2.95;;;20.10;87.00;;;;;;4872763;29;20060;-82
2021/08/24 07:18:39;;;;;;;7.72;3.13;;;20.40;87.00;;;;;;4878418;29;20032;-82
2021/08/24 07:21:08;;;;;;;7.15;3.42;;;20.60;87.00;;;;;;4880560;29;20033;-82
2021/08/24 07:23:36;;;;;;;7.25;3.20;;;20.90;87.00;;;;;;4869894;29;20062;-82
2021/08/24 07:26:02;;;;;;;6.85;3.05;;;21.00;85.40;;;;;;4880155;29;20033;-82
2021/08/24 07:28:30;;;;;;;7.47;3.20;;;21.20;84.80;;;;;;4880651;29;20028;-82
2021/08/24 07:30:55;;;;;;;6.18;3.15;;;21.10;84.00;;;;;;4877330;29;20040;-82
2021/08/24 07:33:24;;;;;;;7.60;3.38;;;21.00;83.30;;;;;;4881119;29;20033;-82
2021/08/24 07:35:50;;;;;;;9.48;3.20;;;20.90;83.50;;;;;;4864245;29;20041;-82
2021/08/24 07:38:19;;;;;;;8.00;3.50;;;20.80;83.70;;;;;;4872486;29;20033;-83
2021/08/24 07:40:45;;;;;;;6.70;3.10;;;20.80;83.90;;;;;;4870170;29;20381;-83
2021/08/24 07:43:12;;;;;;;7.25;2.97;;;20.90;84.40;;;;;;4869924;29;20026;-83
2021/08/24 07:45:38;;;;;;;8.07;3.50;;;21.00;84.70;;;;;;4880942;29;20029;-83
2021/08/24 07:48:04;;;;;;;7.75;3.50;;;21.20;84.80;;;;;;4881494;29;20535;-83
2021/08/24 07:50:30;;;;;;;7.50;3.33;;;21.30;84.10;;;;;;4883202;29;20036;-84
2021/08/24 07:52:58;;;;;;;8.32;3.60;;;21.20;83.20;;;;;;4894154;29;20021;-83
2021/08/24 07:55:23;;;;;;;7.88;3.40;;;21.20;83.60;;;;;;4875633;29;20071;-83
2021/08/24 07:57:49;;;;;;;8.82;3.80;;;21.10;83.20;;;;;;4872227;29;20490;-84
2021/08/24 08:00:15;;;;;;;6.70;3.15;;;21.00;83.60;;;;;;4872852;29;20025;-83
2021/08/24 08:02:41;;;;;;;7.60;3.40;;;21.00;83.80;;;;;;4870700;29;20129;-84
2021/08/24 08:05:10;;;;;;;9.82;3.47;;;20.90;83.00;;;;;;4838845;29;20401;-83
2021/08/24 08:07:36;;;;;;;7.30;3.30;;;20.90;83.70;;;;;;4878166;29;20033;-84
2021/08/24 08:10:07;;;;;;;9.98;3.60;;;21.00;84.60;;;;;;4880159;29;20084;-84
2021/08/24 08:12:33;;;;;;;8.55;3.60;;;21.30;84.00;;;;;;4879119;29;20033;-84
2021/08/24 08:14:58;;;;;;;7.25;3.38;;;21.40;83.80;;;;;;4870506;29;20056;-83
2021/08/24 08:17:24;;;;;;;8.75;3.80;;;21.50;83.60;;;;;;4871838;29;20045;-84
2021/08/24 08:19:50;;;;;;;7.70;3.45;;;21.60;83.00;;;;;;4872298;29;20036;-82
2021/08/24 08:22:15;;;;;;;8.63;3.80;;;21.60;83.20;;;;;;4869994;29;20409;-82
2021/08/24 08:24:41;;;;;;;7.97;3.35;;;21.70;83.50;;;;;;4880139;29;20478;-83
2021/08/24 08:27:07;;;;;;;7.68;3.40;;;21.90;83.50;;;;;;4880116;29;20025;-83
2021/08/24 08:29:33;;;;;;;7.32;3.60;;;22.10;83.50;;;;;;4869818;29;20045;-83
2021/08/24 08:32:13;;;;;;;7.85;3.60;;;22.20;82.70;;;;;;4869897;29;20077;-83
2021/08/24 08:34:39;;;;;;;7.05;3.40;;;22.40;83.50;;;;;;4878094;29;20021;-83
2021/08/24 08:37:06;;;;;;;7.07;3.22;;;22.60;82.50;;;;;;4880358;29;20028;-81
2021/08/24 08:39:32;;;;;;;7.38;3.25;;;22.70;82.00;;;;;;4880212;29;20028;-82
2021/08/24 08:42:09;;;;;;;7.53;3.30;;;22.90;83.60;;;;;;4880823;29;20036;-83
2021/08/24 08:44:39;;;;;;;6.88;3.30;;;23.30;82.70;;;;;;4880069;29;20046;-82
2021/08/24 08:47:42;;;;;;;8.40;3.40;;;23.60;81.90;;;;;;4880323;29;20108;-82
2021/08/24 08:50:22;;;;;;;7.65;3.50;;;23.70;80.60;;;;;;4880221;29;20033;-82
2021/08/24 08:53:04;;;;;;;8.05;3.42;;;23.90;81.70;;;;;;4880158;29;20025;-82
2021/08/24 08:55:42;;;;;;;6.22;3.17;;;24.20;80.70;;;;;;4878718;29;20025;-83
2021/08/24 08:58:31;;;;;;;;;;;;;;;;;;;;;
2021/08/24 09:01:14;;;;;;;7.18;3.42;;;24.60;80.30;;;;;;4879684;29;20029;-83
2021/08/24 09:04:12;;;;;;;11.48;3.83;;;24.70;79.00;;;;;;4879785;29;20029;-83
2021/08/24 09:06:41;;;;;;;7.25;3.00;;;24.70;78.80;;;;;;4880256;29;20056;-83
2021/08/24 09:09:08;;;;;;;8.02;3.20;;;24.70;79.40;;;;;;4873647;29;20101;-83
2021/08/24 09:11:38;;;;;;;7.70;3.33;;;24.70;79.30;;;;;;4861480;29;20026;-84
2021/08/24 09:14:15;;;;;;;9.13;4.00;;;24.80;78.80;;;;;;4861683;29;20032;-85
2021/08/24 09:16:50;;;;;;;8.63;3.88;;;24.80;78.60;;;;;;4868801;29;20028;-83
2021/08/24 09:19:40;;;;;;;7.82;3.38;;;24.80;78.20;;;;;;4878143;29;20028;-83
2021/08/24 09:22:14;;;;;;;9.55;3.70;;;24.90;78.50;;;;;;4881610;29;20025;-83
2021/08/24 09:24:39;;;;;;;8.90;3.60;;;25.00;78.50;;;;;;4882018;29;20056;-83
2021/08/24 09:27:24;;;;;;;6.93;3.20;;;24.90;78.10;;;;;;4886799;29;20025;-83
2021/08/24 09:29:52;;;;;;;8.40;3.70;;;24.90;77.80;;;;;;4886842;29;20043;-84
2021/08/24 09:32:22;;;;;;;7.28;3.30;;;24.70;77.10;;;;;;4883783;29;20438;-84
2021/08/24 09:34:51;;;;;;;6.53;3.13;;;24.50;77.80;;;;;;4883707;29;20029;-83
2021/08/24 09:37:20;;;;;;;7.80;3.30;;;24.40;78.20;;;;;;4870225;29;20025;-84
2021/08/24 09:39:48;;;;;;;6.40;3.38;;;24.40;78.30;;;;;;4864995;29;20468;-85
2021/08/24 09:42:14;;;;;;;7.95;3.60;;;24.30;79.10;;;;;;4863640;29;20034;-82
2021/08/24 09:44:40;;;;;;;8.15;3.50;;;24.30;79.30;;;;;;4863720;29;20037;-82
2021/08/24 09:47:18;;;;;;;9.25;3.65;;;24.30;79.40;;;;;;4867308;29;20036;-82
2021/08/24 09:49:44;;;;;;;7.22;3.55;;;24.40;79.40;;;;;;4880553;29;20029;-82
2021/08/24 09:52:21;;;;;;;7.65;3.40;;;24.40;80.70;;;;;;4883015;29;20032;-82
2021/08/24 09:54:49;;;;;;;8.73;3.60;;;24.60;80.60;;;;;;4881033;29;20028;-82
2021/08/24 09:57:28;;;;;;;8.55;3.80;;;24.80;80.00;;;;;;4883136;29;20029;-83
2021/08/24 10:00:20;;;;;;;7.22;3.55;;;24.90;80.40;;;;;;4883215;29;20025;-83
2021/08/24 10:02:50;;;;;;;7.07;3.60;;;25.10;79.70;;;;;;4856257;29;20456;-83
2021/08/24 10:05:24;;;;;;;7.10;3.38;;;25.30;79.90;;;;;;4882892;29;20557;-82
2021/08/24 10:07:57;;;;;;;6.97;3.40;;;25.60;80.20;;;;;;4882985;29;20036;-82
2021/08/24 10:10:25;;;;;;;8.10;3.70;;;26.00;80.60;;;;;;4882872;29;20517;-83
2021/08/24 10:12:55;;;;;;;7.53;3.65;;;26.30;79.20;;;;;;4881897;29;20040;-83
2021/08/24 10:15:37;;;;;;;7.55;3.63;;;26.50;77.50;;;;;;4883204;29;20045;-83
2021/08/24 10:18:08;;;;;;;8.02;3.40;;;26.60;78.00;;;;;;4882561;29;20033;-83
2021/08/24 10:21:06;;;;;;;6.93;3.40;;;26.90;78.00;;;;;;4881287;29;20068;-83
2021/08/24 10:23:39;;;;;;;7.25;3.45;;;27.10;76.50;;;;;;4882135;29;20033;-83
2021/08/24 10:26:13;;;;;;;8.20;3.90;;;27.30;77.00;;;;;;4882658;29;20029;-84
2021/08/24 10:28:56;;;;;;;6.40;3.17;;;27.50;76.30;;;;;;4882551;29;20041;-84
2021/08/24 10:31:39;;;;;;;6.70;3.40;;;27.70;75.80;;;;;;4882747;29;20111;-84
2021/08/24 10:34:11;;;;;;;7.80;3.70;;;27.70;75.60;;;;;;4880486;29;20037;-84
2021/08/24 10:36:42;;;;;;;6.88;3.63;;;27.70;75.10;;;;;;4882533;29;20021;-84
2021/08/24 10:39:23;;;;;;;6.93;3.55;;;27.70;75.80;;;;;;4881400;29;20025;-81
2021/08/24 10:42:03;;;;;;;7.97;3.35;;;27.60;75.90;;;;;;4881875;29;20501;-82
2021/08/24 10:44:41;;;;;;;10.10;4.03;;;27.70;75.70;;;;;;4881534;29;20033;-84
2021/08/24 10:47:38;;;;;;;7.25;3.50;;;27.80;76.20;;;;;;4882606;29;20031;-82
2021/08/24 10:50:11;;;;;;;7.60;3.65;;;27.80;74.00;;;;;;4861802;29;20553;-84
2021/08/24 10:53:24;;;;;;;6.95;3.30;;;27.70;75.20;;;;;;4881301;29;20044;-84
2021/08/24 10:55:59;;;;;;;7.00;3.45;;;27.70;75.50;;;;;;4873085;29;20434;-82
2021/08/24 10:59:08;;;;;;;6.57;3.25;;;27.70;76.40;;;;;;4882172;29;20029;-84
2021/08/24 11:01:58;;;;;;;7.25;3.70;;;27.80;76.30;;;;;;4881775;29;20045;-82
2021/08/24 11:04:46;;;;;;;7.18;3.50;;;27.80;75.90;;;;;;4880653;29;20033;-83
2021/08/24 11:07:18;;;;;;;8.18;4.05;;;27.80;75.80;;;;;;4881752;29;20100;-82
2021/08/24 11:10:08;;;;;;;6.85;3.30;;;27.60;75.50;;;;;;4873595;29;20047;-84
2021/08/24 11:13:03;;;;;;;6.60;3.35;;;27.50;75.70;;;;;;4880661;29;20054;-84
2021/08/24 11:15:53;;;;;;;6.65;3.40;;;27.40;76.60;;;;;;4879928;29;20059;-84
2021/08/24 11:18:38;;;;;;;8.75;3.25;;;27.70;77.90;;;;;;4878715;29;20031;-85
2021/08/24 11:21:30;;;;;;;8.10;3.80;;;28.00;77.80;;;;;;4879169;29;20036;-84
2021/08/24 11:24:41;;;;;;;6.80;3.40;;;28.20;77.30;;;;;;4863041;29;20404;-84
2021/08/24 11:28:03;;;;;;;9.27;3.33;;;28.30;75.80;;;;;;4861321;29;20041;-81
2021/08/24 11:30:41;;;;;;;6.95;3.42;;;28.20;75.70;;;;;;4824008;29;20046;-81
2021/08/24 11:33:10;;;;;;;6.38;3.50;;;28.20;76.40;;;;;;4862012;29;20032;-81
2021/08/24 11:35:52;;;;;;;7.80;3.33;;;28.30;75.80;;;;;;4862990;29;20557;-80
2021/08/24 11:38:24;;;;;;;7.65;3.30;;;28.30;75.30;;;;;;4881664;29;20437;-81
2021/08/24 11:41:10;;;;;;;6.85;3.28;;;28.30;76.10;;;;;;4881264;29;20473;-81
2021/08/24 11:43:40;;;;;;;7.25;3.30;;;28.50;77.20;;;;;;4881126;29;20025;-81
2021/08/24 11:46:22;;;;;;;6.70;3.25;;;28.90;77.50;;;;;;4880313;29;20386;-80
2021/08/24 11:49:03;;;;;;;6.60;3.58;;;29.00;75.10;;;;;;4881204;29;20033;-80
2021/08/24 11:51:33;;;;;;;6.45;3.30;;;29.30;75.30;;;;;;4881320;29;20033;-81
2021/08/24 11:54:26;;;;;;;6.38;3.10;;;30.00;77.50;;;;;;4874482;29;20116;-81
2021/08/24 11:57:09;;;;;;;6.93;3.20;;;30.60;75.90;;;;;;4881140;29;20029;-79
2021/08/24 11:59:47;;;;;;;6.07;3.10;;;31.00;74.70;;;;;;4881029;29;20029;-82
2021/08/24 12:02:21;;;;;;;6.47;3.00;;;30.80;71.00;;;;;;4880751;29;20539;-82
2021/08/24 12:04:48;;;;;;;6.03;3.13;;;30.30;71.20;;;;;;4880637;29;20036;-80
2021/08/24 12:07:29;;;;;;;6.20;3.17;;;30.30;73.70;;;;;;4880914;29;20504;-80
2021/08/24 12:09:56;;;;;;;5.20;2.80;;;30.70;73.40;;;;;;4880661;29;20037;-80
2021/08/24 12:12:45;;;;;;;5.45;2.83;;;30.80;72.80;;;;;;4880659;29;20433;-80
2021/08/24 12:15:37;;;;;;;7.85;2.90;;;30.80;72.70;;;;;;4880726;29;20056;-80
2021/08/24 12:18:11;;;;;;;6.00;3.10;;;30.80;73.00;;;;;;4880639;29;20032;-80
2021/08/24 12:20:42;;;;;;;5.45;2.83;;;30.90;72.60;;;;;;4880770;29;20489;-80
2021/08/24 12:23:12;;;;;;;5.75;3.10;;;30.70;71.50;;;;;;4880398;29;20096;-82
2021/08/24 12:25:44;;;;;;;6.90;3.35;;;30.30;71.70;;;;;;4874719;29;20029;-82
2021/08/24 12:28:15;;;;;;;6.88;3.42;;;30.00;72.00;;;;;;4873451;29;20382;-82
2021/08/24 12:30:59;;;;;;;7.85;3.33;;;29.60;71.30;;;;;;4866342;29;20113;-80
2021/08/24 12:33:40;;;;;;;5.95;3.10;;;29.60;72.80;;;;;;4873791;29;20438;-81
2021/08/24 12:36:24;;;;;;;7.07;3.40;;;29.70;75.60;;;;;;4880232;29;20025;-80
2021/08/24 12:38:54;;;;;;;5.68;3.05;;;30.10;74.70;;;;;;4879792;29;20037;-81
2021/08/24 12:41:42;;;;;;;5.85;3.10;;;30.50;75.40;;;;;;4880276;29;20028;-83
2021/08/24 12:44:17;;;;;;;5.25;3.00;;;30.70;74.50;;;;;;4880163;29;20025;-83
2021/08/24 12:46:48;;;;;;;6.97;3.35;;;30.80;72.60;;;;;;4879928;29;20090;-82
2021/08/24 12:49:24;;;;;;;7.20;3.25;;;30.70;72.60;;;;;;4879542;29;20047;-83
2021/08/24 12:52:08;;;;;;;5.65;3.10;;;30.70;73.10;;;;;;4877325;29;20393;-81
2021/08/24 12:55:05;;;;;;;6.00;3.00;;;30.70;73.10;;;;;;4879924;29;20025;-81
2021/08/24 12:57:38;;;;;;;5.55;3.00;;;30.70;72.70;;;;;;4879533;29;20029;-82
2021/08/24 13:00:19;;;;;;;7.30;3.20;;;30.40;71.30;;;;;;4878994;29;20377;-82
2021/08/24 13:02:59;;;;;;;6.65;3.30;;;30.00;71.20;;;;;;4879812;29;20045;-82
2021/08/24 13:05:28;;;;;;;6.55;3.10;;;29.60;72.40;;;;;;4879793;29;20108;-82
2021/08/24 13:07:57;;;;;;;5.93;3.15;;;29.20;72.60;;;;;;4879961;29;20025;-82
2021/08/24 13:10:42;;;;;;;5.80;3.22;;;28.90;72.80;;;;;;4879136;29;20128;-81
2021/08/24 13:13:28;;;;;;;7.85;3.70;;;28.60;74.00;;;;;;4877506;29;20021;-82
2021/08/24 13:16:09;;;;;;;7.03;3.60;;;28.30;74.50;;;;;;4879678;29;20049;-81
2021/08/24 13:18:39;;;;;;;9.15;3.35;;;28.00;74.90;;;;;;4879225;29;20029;-81
2021/08/24 13:21:28;;;;;;;6.95;3.80;;;27.90;76.10;;;;;;4879791;29;20096;-81
2021/08/24 13:24:09;;;;;;;6.45;3.13;;;27.90;76.90;;;;;;4879373;29;20104;-82
2021/08/24 13:27:25;;;;;;;6.50;3.22;;;28.40;77.20;;;;;;4879433;29;20033;-82
2021/08/24 13:29:50;;;;;;;;;;;28.80;76.90;;;;;;4867277;29;20072;-82
2021/08/24 13:32:33;;;;;;;5.90;3.00;;;29.10;76.40;;;;;;4879662;29;20360;-82
2021/08/24 13:35:00;;;;;;;7.95;3.25;;;29.30;75.40;;;;;;4877388;29;20087;-82
2021/08/24 13:37:37;;;;;;;7.55;3.40;;;29.20;74.20;;;;;;4875163;29;20104;-81
2021/08/24 13:40:29;;;;;;;7.50;3.58;;;29.10;74.80;;;;;;4879897;29;20025;-82
2021/08/24 13:42:57;;;;;;;6.85;3.42;;;29.00;74.50;;;;;;4880879;29;20040;-81
2021/08/24 13:45:30;;;;;;;6.15;3.15;;;28.80;74.70;;;;;;4878270;29;20034;-83
2021/08/24 13:47:59;;;;;;;8.52;3.45;;;28.60;74.10;;;;;;4880375;29;20061;-83
2021/08/24 13:50:42;;;;;;;6.55;3.22;;;28.30;74.10;;;;;;4879979;29;20048;-81
2021/08/24 13:53:16;;;;;;;7.50;3.40;;;27.90;73.40;;;;;;4880763;29;20025;-83
2021/08/24 13:55:49;;;;;;;7.28;3.40;;;27.70;75.10;;;;;;4881527;29;20037;-83
2021/08/24 13:58:35;;;;;;;6.78;3.30;;;27.60;76.20;;;;;;4881226;29;20033;-83
2021/08/24 14:01:26;;;;;;;7.30;3.30;;;27.70;76.80;;;;;;4880731;29;20033;-82
2021/08/24 14:04:10;;;;;;;7.50;3.00;;;28.20;78.10;;;;;;4879008;29;20033;-80
2021/08/24 14:06:40;;;;;;;6.47;3.00;;;28.80;78.80;;;;;;4861223;29;20086;-80
2021/08/24 14:09:18;;;;;;;7.25;3.30;;;29.30;76.50;;;;;;4867212;29;20109;-80
2021/08/24 14:11:50;;;;;;;5.50;2.90;;;29.70;75.70;;;;;;4878605;29;20033;-81
2021/08/24 14:14:38;;;;;;;5.15;2.78;;;30.60;78.70;;;;;;4887646;29;20051;-82
2021/08/24 14:17:23;;;;;;;6.43;2.97;;;32.40;76.80;;;;;;4912733;29;20433;-81
2021/08/24 14:19:51;;;;;;;5.22;3.03;;;34.60;76.00;;;;;;4912515;29;20024;-82
2021/08/24 14:22:17;;;;;;;5.43;2.90;;;36.70;75.00;;;;;;4906201;29;20047;-82
2021/08/24 14:24:54;;;;;;;4.28;2.50;;;38.90;73.30;;;;;;4902632;29;20083;-82
2021/08/24 14:27:20;;;;;;;5.72;3.00;;;40.20;66.00;;;;;;4905324;29;20036;-85
2021/08/24 14:29:48;;;;;;;4.72;2.72;;;40.60;62.80;;;;;;4903342;29;20178;-86
2021/08/24 14:32:33;;;;;;;4.43;2.50;;;40.80;58.90;;;;;;4904813;29;20155;-82
2021/08/24 14:34:59;;;;;;;8.25;2.90;;;41.10;60.40;;;;;;4902196;29;20036;-80
2021/08/24 14:37:32;;;;;;;4.95;2.60;;;41.50;57.60;;;;;;4904071;29;20096;-83
2021/08/24 14:40:03;;;;;;;4.35;2.55;;;40.70;55.30;;;;;;4904529;29;20048;-83
2021/08/24 14:42:52;;;;;;;5.30;2.60;;;39.50;56.50;;;;;;4903320;29;20024;-82
2021/08/24 14:45:25;;;;;;;5.22;2.45;;;38.40;57.30;;;;;;4901383;29;20020;-82
2021/08/24 14:48:07;;;;;;;5.32;2.60;;;37.40;58.90;;;;;;4902584;29;20025;-82
2021/08/24 14:50:38;;;;;;;6.70;2.70;;;36.60;59.40;;;;;;4901794;29;20450;-82
2021/08/24 14:53:32;;;;;;;6.72;3.00;;;35.80;60.00;;;;;;4903637;29;20072;-83
2021/08/24 14:56:24;;;;;;;4.97;2.70;;;35.80;64.50;;;;;;4902220;29;20032;-83
2021/08/24 14:59:15;;;;;;;5.43;2.67;;;37.00;65.90;;;;;;4903023;29;20115;-83
2021/08/24 15:02:07;;;;;;;5.65;2.92;;;38.60;66.00;;;;;;4893795;29;20036;-83
2021/08/24 15:04:34;;;;;;;4.22;2.60;;;38.60;61.90;;;;;;4903198;29;20032;-83
2021/08/24 15:07:09;;;;;;;4.90;2.70;;;37.70;60.00;;;;;;4905400;29;20365;-82
2021/08/24 15:09:40;;;;;;;5.43;2.50;;;37.20;63.10;;;;;;4923441;29;20032;-83
2021/08/24 15:12:34;;;;;;;4.88;2.60;;;38.10;65.00;;;;;;4905926;29;20047;-84
2021/08/24 15:15:07;;;;;;;;;;;39.60;65.30;;;;;;4923701;29;20024;-84
2021/08/24 15:17:39;;;;;;;7.22;3.20;;;40.50;65.30;;;;;;4921699;29;19907;-84
2021/08/24 15:20:18;;;;;;;5.27;2.50;;;41.50;62.40;;;;;;4905367;29;20052;-84
2021/08/24 15:23:05;;;;;;;5.53;3.00;;;42.30;60.60;;;;;;4923028;29;20055;-84
2021/08/24 15:25:40;;;;;;;5.00;2.38;;;43.00;58.90;;;;;;4905622;29;20060;-84
2021/08/24 15:28:16;;;;;;;5.55;2.70;;;42.30;54.00;;;;;;4921429;29;20032;-82
2021/08/24 15:30:43;;;;;;;5.80;2.42;;;40.70;55.00;;;;;;4921436;29;20032;-83
2021/08/24 15:33:40;;;;;;;6.40;3.10;;;39.00;55.50;;;;;;4921578;29;20024;-84
2021/08/24 15:36:07;;;;;;;5.18;2.78;;;38.30;59.30;;;;;;4901215;29;20124;-84
2021/08/24 15:38:33;;;;;;;5.88;2.90;;;39.10;60.40;;;;;;4902541;29;20461;-84
2021/08/24 15:40:58;;;;;;;5.72;2.47;;;38.50;57.30;;;;;;4902814;29;20052;-84
2021/08/24 15:43:29;;;;;;;5.82;3.00;;;37.20;56.60;;;;;;4885473;29;20028;-83
2021/08/24 15:45:55;;;;;;;7.03;3.30;;;35.80;57.40;;;;;;4886710;29;20128;-83
2021/08/24 15:48:22;;;;;;;6.57;3.05;;;34.70;59.10;;;;;;4902844;29;20052;-83
2021/08/24 15:50:51;;;;;;;8.10;3.30;;;34.10;61.80;;;;;;4902606;29;20119;-83
2021/08/24 15:53:18;;;;;;;7.50;3.55;;;33.60;61.60;;;;;;4902225;29;20135;-82
2021/08/24 15:55:49;;;;;;;6.45;3.30;;;33.40;65.00;;;;;;4885300;29;20067;-83
2021/08/24 15:58:16;;;;;;;6.97;3.10;;;34.40;68.30;;;;;;4905956;29;20029;-83
2021/08/24 16:00:43;;;;;;;6.60;3.10;;;35.00;64.80;;;;;;4901931;29;20039;-81
2021/08/24 16:03:10;;;;;;;6.20;2.90;;;35.20;63.50;;;;;;4909340;29;20075;-83
2021/08/24 16:05:37;;;;;;;7.30;3.50;;;34.70;61.20;;;;;;4912139;29;20044;-83
2021/08/24 16:08:04;;;;;;;6.78;3.28;;;34.00;61.50;;;;;;4920144;29;20035;-83
2021/08/24 16:10:34;;;;;;;8.77;3.67;;;33.50;63.40;;;;;;4903357;29;20048;-83
2021/08/24 16:13:01;;;;;;;6.40;3.30;;;33.80;64.10;;;;;;4920386;29;20025;-83
2021/08/24 16:15:28;;;;;;;6.65;3.20;;;33.90;63.60;;;;;;4921183;29;20032;-83
2021/08/24 16:18:04;;;;;;;8.23;3.42;;;33.70;62.00;;;;;;4913779;29;20496;-83
2021/08/24 16:20:31;;;;;;;8.55;3.65;;;32.80;59.90;;;;;;4917044;29;20036;-82
2021/08/24 16:22:57;;;;;;;8.63;3.88;;;31.90;61.50;;;;;;4917948;29;20111;-81
2021/08/24 16:25:26;;;;;;;6.60;3.80;;;31.50;64.80;;;;;;4903196;29;20024;-84
2021/08/24 16:27:52;;;;;;;7.72;3.53;;;31.90;66.70;;;;;;4920111;29;20469;-86
2021/08/24 16:30:25;;;;;;;8.65;3.42;;;32.40;67.10;;;;;;4918943;29;20045;-82
2021/08/24 16:32:52;;;;;;;7.63;3.55;;;32.80;65.50;;;;;;4916121;29;20525;-81
2021/08/24 16:35:29;;;;;;;6.70;3.50;;;33.00;65.40;;;;;;4912270;29;20092;-84
2021/08/24 16:37:56;;;;;;;7.57;3.45;;;33.20;63.90;;;;;;4901977;29;20059;-86
2021/08/24 16:40:25;;;;;;;5.90;3.28;;;33.40;65.10;;;;;;4902805;29;20028;-84
2021/08/24 16:42:53;;;;;;;6.00;3.08;;;33.70;65.50;;;;;;4917776;29;20075;-83
2021/08/24 16:45:21;;;;;;;8.40;4.18;;;33.90;64.80;;;;;;4889288;29;20032;-88
2021/08/24 16:47:47;;;;;;;7.03;3.20;;;33.60;63.60;;;;;;4901894;29;20040;-90
2021/08/24 16:50:17;;;;;;;6.90;3.50;;;33.40;63.90;;;;;;4918408;29;20705;-84
2021/08/24 16:52:42;;;;;;;6.60;3.30;;;33.30;65.00;;;;;;4917972;29;20058;-85
2021/08/24 16:55:13;;;;;;;6.32;3.28;;;33.00;62.20;;;;;;4899000;29;20123;-84
2021/08/24 16:57:39;;;;;;;6.35;3.40;;;32.70;63.10;;;;;;4898843;29;20071;-84
2021/08/24 17:00:07;;;;;;;7.07;3.47;;;32.10;62.00;;;;;;4899251;29;20039;-86
2021/08/24 17:02:33;;;;;;;6.35;3.38;;;31.60;62.50;;;;;;4897847;29;20056;-86
2021/08/24 17:05:00;;;;;;;8.00;3.55;;;31.00;62.60;;;;;;4898304;29;20020;-86
2021/08/24 17:07:26;;;;;;;10.45;4.90;;;30.40;63.10;;;;;;4898405;29;20028;-87
2021/08/24 17:09:55;;;;;;;7.45;4.05;;;29.60;63.50;;;;;;4882422;29;20386;-86
2021/08/24 17:12:24;;;;;;;6.57;3.65;;;28.90;64.80;;;;;;4899044;29;20048;-87
2021/08/24 17:14:56;;;;;;;7.57;4.15;;;28.50;66.90;;;;;;4897891;29;20025;-87
2021/08/24 17:17:28;;;;;;;7.97;4.40;;;28.40;67.60;;;;;;4882758;29;20032;-89
2021/08/24 17:19:55;;;;;;;8.02;3.75;;;28.20;68.00;;;;;;4867525;29;20563;-84
2021/08/24 17:22:21;;;;;;;8.40;4.22;;;29.10;69.70;;;;;;4881729;29;20069;-85
2021/08/24 17:24:49;;;;;;;8.50;4.05;;;27.90;68.90;;;;;;4898881;29;20088;-84
2021/08/24 17:27:15;;;;;;;8.63;4.43;;;27.80;68.90;;;;;;4916852;29;20024;-87
2021/08/24 17:29:42;;;;;;;8.02;4.00;;;28.30;69.50;;;;;;4900337;29;20402;-86
2021/08/24 17:32:09;;;;;;;7.82;4.05;;;26.70;67.80;;;;;;4916730;29;20063;-86
2021/08/24 17:34:35;;;;;;;8.02;4.25;;;26.70;68.70;;;;;;4900583;29;20138;-85
2021/08/24 17:37:04;;;;;;;8.85;5.10;;;25.70;70.40;;;;;;4917218;29;20029;-84
2021/08/24 17:39:30;;;;;;;8.18;4.22;;;25.60;69.80;;;;;;4885444;29;20032;-84
2021/08/24 17:41:57;;;;;;;8.63;4.05;;;24.80;70.30;;;;;;4917122;29;20059;-84
2021/08/24 17:44:24;;;;;;;8.35;4.40;;;24.30;71.00;;;;;;4914649;29;20033;-85
2021/08/24 17:46:57;;;;;;;8.00;4.13;;;24.00;72.10;;;;;;4900994;29;20107;-83
2021/08/24 17:49:24;;;;;;;8.55;4.07;;;23.30;73.10;;;;;;4902181;29;20505;-85
2021/08/24 17:51:49;;;;;;;9.90;4.32;;;23.40;73.60;;;;;;4897837;29;20056;-83
2021/08/24 17:54:15;;;;;;;8.75;4.10;;;23.10;75.10;;;;;;4918304;29;20377;-85
2021/08/24 17:56:42;;;;;;;8.05;4.22;;;22.20;74.50;;;;;;4922146;29;20036;-85
2021/08/24 17:59:08;;;;;;;8.90;4.57;;;22.80;75.30;;;;;;4922440;29;20099;-85
2021/08/24 18:01:36;;;;;;;8.65;3.97;;;22.50;75.70;;;;;;4904672;29;20536;-85
2021/08/24 18:04:03;;;;;;;7.80;4.20;;;24.10;80.20;;;;;;4892704;29;20039;-89
2021/08/24 18:06:42;;;;;;;9.13;4.70;;;22.30;77.80;;;;;;4905608;29;20037;-85
2021/08/24 18:09:19;;;;;;;8.10;4.38;;;22.20;77.70;;;;;;4906526;29;20124;-85
2021/08/24 18:11:59;;;;;;;9.32;4.20;;;22.00;78.20;;;;;;4923198;29;20384;-86
2021/08/24 18:14:34;;;;;;;9.98;5.35;;;21.90;78.80;;;;;;4891325;29;20040;-86
2021/08/24 18:17:12;;;;;;;8.48;4.40;;;21.90;80.40;;;;;;4906626;29;20033;-87
2021/08/24 18:20:26;;;;;;;10.38;4.82;;;21.60;81.60;;;;;;4902237;29;20035;-90
2021/08/24 18:23:06;;;;;;;9.18;4.60;;;21.40;78.10;;;;;;4900899;29;20028;-88